createdAt,value
2023-03-17T00:01:42.645Z,9.79
2023-03-17T00:06:45.863Z,9.69
2023-03-17T00:11:49.218Z,9.81
2023-03-17T00:16:53.411Z,9.62
2023-03-17T00:21:56.444Z,9.68
2023-03-17T00:26:59.068Z,9.81
2023-03-17T00:32:02.469Z,9.74
2023-03-17T00:37:05.117Z,9.66
2023-03-17T00:42:07.959Z,9.54
2023-03-17T00:47:12.016Z,9.55
2023-03-17T00:52:14.579Z,9.48
2023-03-17T00:57:17.177Z,9.68
2023-03-17T01:02:19.859Z,9.67
2023-03-17T01:07:22.847Z,9.70
2023-03-17T01:12:26.737Z,9.64
2023-03-17T01:17:29.391Z,9.57
2023-03-17T01:22:32.315Z,9.43
2023-03-17T01:27:36.831Z,9.43
2023-03-17T01:32:40.100Z,9.40
2023-03-17T01:37:42.800Z,9.17
2023-03-17T01:42:52.697Z,8.89
2023-03-17T01:47:55.297Z,8.82
2023-03-17T01:52:57.870Z,8.87
2023-03-17T01:58:00.715Z,8.92
2023-03-17T02:03:04.438Z,8.78
2023-03-17T02:08:16.643Z,8.48
2023-03-17T02:13:19.497Z,8.43
2023-03-17T02:18:28.227Z,8.48
2023-03-17T02:23:30.988Z,8.58
2023-03-17T02:28:35.439Z,8.12
2023-03-17T02:33:38.155Z,7.90
2023-03-17T02:38:41.542Z,7.84
2023-03-17T02:43:44.055Z,7.91
2023-03-17T02:48:46.995Z,7.73
2023-03-17T02:53:49.711Z,7.90
2023-03-17T02:58:52.682Z,7.84
2023-03-17T03:03:55.631Z,7.90
2023-03-17T03:08:58.339Z,7.90
2023-03-17T03:14:01.382Z,7.84
2023-03-17T03:19:04.835Z,7.75
2023-03-17T03:24:07.733Z,7.84
2023-03-17T03:29:10.316Z,7.81
2023-03-17T03:34:13.148Z,7.78
2023-03-17T03:39:16.001Z,7.71
2023-03-17T03:44:18.573Z,7.38
2023-03-17T03:49:21.429Z,7.37
2023-03-17T03:54:24.174Z,7.17
2023-03-17T03:59:26.729Z,7.21
2023-03-17T04:04:29.710Z,7.27
2023-03-17T04:09:32.476Z,7.30
2023-03-17T04:14:35.213Z,7.39
2023-03-17T04:19:38.566Z,7.63
2023-03-17T04:24:41.189Z,7.62
2023-03-17T04:29:44.341Z,7.89
2023-03-17T04:34:46.905Z,8.24
2023-03-17T04:39:49.810Z,8.35
2023-03-17T04:44:52.287Z,8.74
2023-03-17T04:49:54.974Z,9.19
2023-03-17T04:54:57.679Z,9.61
2023-03-17T05:00:00.392Z,10.10
2023-03-17T05:05:02.957Z,10.34
2023-03-17T05:10:06.870Z,10.55
2023-03-17T05:15:10.211Z,10.87
2023-03-17T05:20:13.619Z,11.13
2023-03-17T05:25:17.072Z,11.35
2023-03-17T05:30:19.963Z,11.37
2023-03-17T05:35:25.804Z,11.31
2023-03-17T05:40:28.708Z,11.29
2023-03-17T05:45:33.693Z,11.28
2023-03-17T05:50:38.502Z,11.20
2023-03-17T05:55:41.665Z,11.29
2023-03-17T06:00:45.422Z,10.92
2023-03-17T06:05:48.418Z,11.13
2023-03-17T06:10:51.783Z,11.27
2023-03-17T06:15:54.438Z,11.51
2023-03-17T06:20:57.416Z,11.85
2023-03-17T06:26:00.017Z,12.07
2023-03-17T06:31:04.702Z,12.52
2023-03-17T06:36:09.755Z,12.63
2023-03-17T06:41:12.775Z,12.92
2023-03-17T06:46:17.355Z,13.00
2023-03-17T06:51:23.415Z,13.05
2023-03-17T06:56:31.613Z,13.27
2023-03-17T07:01:39.496Z,13.40
2023-03-17T07:06:44.026Z,13.51
2023-03-17T07:11:49.569Z,13.74
2023-03-17T07:16:54.513Z,13.95
2023-03-17T07:21:57.274Z,14.05
2023-03-17T07:27:02.538Z,14.28
2023-03-17T07:32:08.315Z,14.36
2023-03-17T07:37:12.361Z,14.55
2023-03-17T07:42:17.706Z,14.47
2023-03-17T07:47:21.346Z,14.68
2023-03-17T07:52:24.183Z,14.85
2023-03-17T07:57:27.403Z,14.90
2023-03-17T08:02:30.343Z,14.93
2023-03-17T08:07:33.169Z,15.14
2023-03-17T08:12:36.929Z,15.03
2023-03-17T08:17:40.362Z,15.14
2023-03-17T08:22:44.226Z,15.10
2023-03-17T08:27:47.475Z,15.32
2023-03-17T08:32:50.480Z,15.40
2023-03-17T08:37:56.159Z,15.25
2023-03-17T08:43:00.258Z,15.38
2023-03-17T08:48:05.878Z,15.27
2023-03-17T08:53:08.644Z,15.79
2023-03-17T08:58:11.464Z,15.92
2023-03-17T09:03:14.325Z,16.08
2023-03-17T09:08:17.585Z,16.58
2023-03-17T09:13:22.158Z,16.82
2023-03-17T09:18:24.897Z,17.02
2023-03-17T09:23:28.057Z,17.07
2023-03-17T09:28:32.114Z,17.29
2023-03-17T09:33:35.107Z,17.59
2023-03-17T09:38:39.177Z,17.75
2023-03-17T09:44:01.466Z,17.59
2023-03-17T09:59:44.085Z,18.22
2023-03-17T10:04:48.137Z,18.37
2023-03-17T10:15:22.417Z,18.42
2023-03-17T10:20:43.573Z,18.63
2023-03-17T10:25:48.684Z,18.77
2023-03-17T10:31:03.567Z,18.88
2023-03-17T10:36:10.027Z,18.95
2023-03-17T10:41:16.837Z,19.28
2023-03-17T10:46:30.365Z,19.17
2023-03-17T10:51:36.891Z,19.33
2023-03-17T10:56:42.593Z,19.98
2023-03-17T11:01:53.077Z,20.37
2023-03-17T11:06:58.771Z,20.46
2023-03-17T11:12:06.029Z,20.33
2023-03-17T11:17:48.401Z,20.23
2023-03-17T11:23:19.563Z,20.11
2023-03-17T11:28:28.587Z,20.13
2023-03-17T11:38:58.645Z,20.12
2023-03-17T11:44:31.474Z,20.57
2023-03-17T11:49:40.052Z,20.78
2023-03-17T12:05:19.384Z,20.91
2023-03-17T12:15:48.844Z,20.90
2023-03-17T12:20:58.700Z,20.85
2023-03-17T12:26:08.944Z,20.24
2023-03-17T12:31:25.334Z,19.93
2023-03-17T12:36:28.819Z,19.80
2023-03-17T12:47:28.032Z,19.68
2023-03-17T13:03:58.155Z,19.27
2023-03-17T13:09:20.737Z,18.26
2023-03-17T13:14:43.644Z,17.64
2023-03-17T13:20:04.593Z,17.59
2023-03-17T13:30:55.408Z,16.78
2023-03-17T13:51:59.798Z,14.61
2023-03-17T14:02:39.939Z,14.12
2023-03-17T14:07:49.547Z,13.95
2023-03-17T14:18:28.350Z,13.49
2023-03-17T14:23:31.629Z,13.29
2023-03-17T14:28:35.669Z,13.20
2023-03-17T14:33:41.192Z,13.08
2023-03-17T14:38:49.217Z,13.00
2023-03-17T14:43:54.110Z,12.91
2023-03-17T14:49:17.844Z,12.88
2023-03-17T14:54:24.872Z,12.84
2023-03-17T14:59:32.054Z,12.85
2023-03-17T15:04:34.823Z,12.75
2023-03-17T15:09:39.989Z,12.62
2023-03-17T15:14:45.609Z,12.49
2023-03-17T15:19:53.766Z,12.32
2023-03-17T15:30:14.736Z,12.16
2023-03-17T15:35:17.593Z,12.25
2023-03-17T15:40:21.649Z,12.24
2023-03-17T15:45:24.891Z,12.07
2023-03-17T15:50:33.229Z,11.95
2023-03-17T15:55:36.249Z,11.77
2023-03-17T16:00:39.344Z,11.83
2023-03-17T16:05:43.463Z,11.68
2023-03-17T16:10:47.036Z,11.64
2023-03-17T16:15:56.894Z,11.61
2023-03-17T16:21:00.403Z,11.72
2023-03-17T16:26:14.130Z,11.74
2023-03-17T16:31:25.705Z,11.74
2023-03-17T16:36:28.683Z,11.83
2023-03-17T16:41:34.975Z,11.83
2023-03-17T16:46:38.144Z,11.84
2023-03-17T16:51:41.317Z,11.80
2023-03-17T16:56:43.992Z,11.77
2023-03-17T17:01:46.838Z,11.76
2023-03-17T17:06:50.116Z,11.80
2023-03-17T17:11:52.656Z,11.85
2023-03-17T17:16:55.327Z,11.81
2023-03-17T17:21:58.474Z,11.83
2023-03-17T17:27:01.723Z,11.76
2023-03-17T17:32:04.497Z,11.74
2023-03-17T17:37:09.560Z,11.70
2023-03-17T17:42:12.327Z,11.62
2023-03-17T17:47:15.883Z,11.43
2023-03-17T17:52:18.810Z,11.50
2023-03-17T17:57:22.621Z,11.51
2023-03-17T18:02:30.125Z,11.45
2023-03-17T18:07:33.439Z,11.44
2023-03-17T18:12:38.172Z,11.28
2023-03-17T18:17:43.020Z,11.24
2023-03-17T18:22:46.786Z,11.26
2023-03-17T18:27:49.665Z,10.98
2023-03-17T18:32:58.607Z,10.95
2023-03-17T18:38:01.926Z,10.84
2023-03-17T18:43:04.671Z,10.73
2023-03-17T18:48:07.321Z,10.97
2023-03-17T18:53:09.875Z,10.62
2023-03-17T18:58:13.578Z,10.55
2023-03-17T19:03:16.674Z,10.53
2023-03-17T19:08:20.555Z,10.56
2023-03-17T19:13:24.401Z,10.44
2023-03-17T19:18:27.848Z,10.20
2023-03-17T19:23:32.299Z,10.26
2023-03-17T19:28:35.656Z,10.29
2023-03-17T19:33:38.312Z,10.23
2023-03-17T19:38:41.507Z,10.27
2023-03-17T19:43:44.208Z,10.17
2023-03-17T19:48:46.801Z,10.28
2023-03-17T19:53:49.739Z,10.26
2023-03-17T19:58:52.443Z,10.15
2023-03-17T20:03:55.287Z,10.12
2023-03-17T20:08:58.110Z,10.13
2023-03-17T20:14:02.607Z,10.07
2023-03-17T20:19:05.313Z,10.11
2023-03-17T20:24:09.907Z,10.11
2023-03-17T20:29:14.549Z,10.14
2023-03-17T20:34:17.212Z,10.19
2023-03-17T20:39:20.194Z,10.18
2023-03-17T20:44:24.748Z,10.20
2023-03-17T20:49:27.859Z,10.23
2023-03-17T20:54:30.486Z,10.18
2023-03-17T20:59:34.626Z,10.13
2023-03-17T21:04:37.354Z,10.22
2023-03-17T21:09:41.436Z,10.25
2023-03-17T21:14:44.326Z,10.21
2023-03-17T21:19:47.520Z,10.07
2023-03-17T21:24:50.575Z,10.09
2023-03-17T21:29:53.448Z,10.15
2023-03-17T21:34:56.725Z,10.21
2023-03-17T21:39:59.464Z,10.31
2023-03-17T21:45:02.038Z,10.23
2023-03-17T21:50:06.179Z,10.01
2023-03-17T21:55:09.519Z,10.11
2023-03-17T22:00:13.187Z,10.10
2023-03-17T22:05:16.441Z,10.14
2023-03-17T22:10:19.134Z,9.93
2023-03-17T22:15:22.595Z,9.81
2023-03-17T22:20:25.482Z,9.88
2023-03-17T22:25:28.405Z,9.92
2023-03-17T22:30:31.852Z,10.04
2023-03-17T22:35:34.753Z,9.68
2023-03-17T22:40:37.479Z,9.29
2023-03-17T22:45:40.082Z,9.31
2023-03-17T22:50:43.009Z,9.46
2023-03-17T22:55:45.666Z,9.57
2023-03-17T23:00:48.896Z,9.80
2023-03-17T23:05:54.821Z,9.89
2023-03-17T23:10:59.783Z,10.01
2023-03-17T23:16:03.351Z,9.79
2023-03-17T23:21:06.938Z,10.02
2023-03-17T23:26:09.480Z,10.08
2023-03-17T23:31:13.273Z,10.23
2023-03-17T23:36:17.156Z,10.39
2023-03-17T23:41:20.298Z,10.46
2023-03-17T23:46:22.887Z,10.19
2023-03-17T23:51:25.599Z,10.06
2023-03-17T23:56:28.309Z,9.81
